KLYH/LYH METAR and TAF weather

Enter ICAO airport designator
Station Type Date Time Source
KLYH METAR 2019/10/15 02:54 UTC NOAA

KLYH 150254Z AUTO 27003KT 10SM CLR 09/06 A3009 RMK AO2 SLP187 T00940056 51012 $


Station Type Date Time Source
KLYH Decoded METAR 2019/10/15 02:54 UTC NOAA

LYNCHBURG REGIONAL AIRPORT, VA, United States (KLYH) 37-19N 079-12W 295M
Oct 14, 2019 - 10:54 PM EDT / 2019.10.15 0254 UTC
Wind: from the W (270 degrees) at 3 MPH (3 KT):0
Visibility: 10 mile(s):0
Sky conditions: clear
Temperature: 48.9 F (9.4 C)
Dew Point: 42.1 F (5.6 C)
Relative Humidity: 77%
Pressure (altimeter): 30.09 in. Hg (1018 hPa)
Pressure tendency: 0.04 inches (1.2 hPa) higher than three hours ago
ob: KLYH 150254Z AUTO 27003KT 10SM CLR 09/06 A3009 RMK AO2 SLP187 T00940056 51012
cycle: 3

Station Type Date Time Source
KLYH TAF 2019/10/14 18:24 UTC NOAA

TAF KLYH 141722Z 1418/1518 28005KT P6SM SKC
FM142300 VRB03KT P6SM SKC
FM151400 07005KT P6SM FEW250
FM151700 13005KT P6SM SCT250

Example: see airport list